Time;durP1;ratioP1;P1;durP2;ratioP2;P2;SDS_P1;SDS_P2;PMS_P1;PMS_P2;Temp;Humidity;BMP_temperature;BMP_pressure;BME280_temperature;BME280_humidity;BME280_pressure;Samples;Min_cycle;Max_cycle;Signal;HPM_P1;HPM_P2
2022/08/15 00:01:14;;;;;;;11.90;10.88;;;;;;;;;;4911949;29;20036;-73
2022/08/15 00:03:44;;;;;;;11.38;10.63;;;;;;;;;;4911551;29;20060;-73
2022/08/15 00:06:17;;;;;;;11.60;10.57;;;;;;;;;;4909046;29;20034;-73
2022/08/15 00:08:48;;;;;;;11.63;10.63;;;;;;;;;;4911190;29;20121;-73
2022/08/15 00:11:18;;;;;;;11.38;10.38;;;;;;;;;;4898795;29;20032;-73
2022/08/15 00:13:48;;;;;;;11.65;10.73;;;;;;;;;;4911742;29;20039;-73
2022/08/15 00:16:14;;;;;;;11.85;10.85;;;;;;;;;;4923328;29;20043;-73
2022/08/15 00:18:42;;;;;;;11.45;10.52;;;;;;;;;;4911457;29;20059;-73
2022/08/15 00:21:10;;;;;;;12.10;11.10;;;;;;;;;;4912067;29;20032;-73
2022/08/15 00:23:40;;;;;;;11.65;10.75;;;;;;;;;;4911647;29;20032;-71
2022/08/15 00:26:08;;;;;;;12.63;11.35;;;;;;;;;;4909995;29;20031;-71
2022/08/15 00:28:34;;;;;;;12.77;11.80;;;;;;;;;;4911533;29;20039;-72
2022/08/15 00:31:00;;;;;;;12.25;11.13;;;;;;;;;;4911879;29;20300;-71
2022/08/15 00:33:28;;;;;;;14.57;11.55;;;;;;;;;;4910735;29;20377;-71
2022/08/15 00:35:54;;;;;;;12.30;11.10;;;;;;;;;;4926097;29;20031;-71
2022/08/15 00:38:23;;;;;;;12.68;11.55;;;;;;;;;;4912015;29;20646;-71
2022/08/15 00:43:40;;;;;;;12.88;11.85;;;;;;;;;;4909167;29;20321;-71
2022/08/15 00:46:09;;;;;;;12.68;11.57;;;;;;;;;;4926191;29;20036;-71
2022/08/15 00:48:44;;;;;;;12.65;11.63;;;;;;;;;;4910055;29;20050;-71
2022/08/15 00:51:34;;;;;;;12.25;11.20;;;;;;;;;;4909910;29;20051;-71
2022/08/15 00:54:11;;;;;;;13.00;11.80;;;;;;;;;;4915382;29;20052;-71
2022/08/15 00:56:46;;;;;;;12.60;11.57;;;;;;;;;;4909108;29;20086;-72
2022/08/15 00:59:15;;;;;;;12.35;11.25;;;;;;;;;;4909655;29;20043;-71
2022/08/15 01:01:42;;;;;;;12.68;11.32;;;;;;;;;;4924990;29;20528;-71
2022/08/15 01:04:11;;;;;;;12.23;11.32;;;;;;;;;;4924874;29;20040;-72
2022/08/15 01:06:37;;;;;;;12.55;11.57;;;;;;;;;;4925739;29;20050;-72
2022/08/15 01:09:06;;;;;;;12.45;11.52;;;;;;;;;;4909994;29;20036;-72
2022/08/15 01:11:36;;;;;;;12.25;11.35;;;;;;;;;;4909533;29;20516;-72
2022/08/15 01:14:06;;;;;;;13.40;12.20;;;;;;;;;;4911070;29;20039;-71
2022/08/15 01:16:38;;;;;;;12.95;11.52;;;;;;;;;;4909916;29;20427;-71
2022/08/15 01:19:20;;;;;;;12.48;11.50;;;;;;;;;;4909975;29;20051;-71
2022/08/15 01:21:54;;;;;;;12.15;11.23;;;;;;;;;;4910696;29;20051;-71
2022/08/15 01:24:51;;;;;;;12.63;11.38;;;;;;;;;;4923330;29;20051;-71
2022/08/15 01:27:17;;;;;;;12.55;11.45;;;;;;;;;;4909775;29;20401;-71
2022/08/15 01:29:43;;;;;;;12.68;11.57;;;;;;;;;;4925104;29;20067;-71
2022/08/15 01:32:09;;;;;;;12.50;11.32;;;;;;;;;;4924522;29;20083;-71
2022/08/15 01:34:35;;;;;;;12.18;11.27;;;;;;;;;;4925342;29;20039;-71
2022/08/15 01:37:01;;;;;;;12.80;11.70;;;;;;;;;;4909896;29;20114;-71
2022/08/15 01:39:43;;;;;;;12.38;11.48;;;;;;;;;;4909636;29;20047;-71
2022/08/15 01:42:48;;;;;;;12.73;11.82;;;;;;;;;;4924607;29;20087;-71
2022/08/15 01:45:20;;;;;;;12.13;11.32;;;;;;;;;;4858028;29;20516;-71
2022/08/15 01:47:50;;;;;;;12.20;11.18;;;;;;;;;;4857372;29;20116;-71
2022/08/15 01:50:18;;;;;;;11.55;10.55;;;;;;;;;;4854776;29;20494;-71
2022/08/15 01:53:25;;;;;;;12.38;11.30;;;;;;;;;;4870273;29;20051;-71
2022/08/15 01:56:12;;;;;;;12.27;11.02;;;;;;;;;;4865427;29;20064;-71
2022/08/15 01:58:42;;;;;;;12.77;11.77;;;;;;;;;;4870378;29;20045;-71
2022/08/15 02:01:13;;;;;;;12.82;11.57;;;;;;;;;;4868880;29;20048;-70
2022/08/15 02:03:41;;;;;;;13.15;11.18;;;;;;;;;;4856924;29;20504;-71
2022/08/15 02:06:12;;;;;;;12.18;11.13;;;;;;;;;;4859461;29;20041;-71
2022/08/15 02:08:41;;;;;;;12.30;11.40;;;;;;;;;;4868942;29;20185;-71
2022/08/15 02:11:15;;;;;;;12.23;11.13;;;;;;;;;;4859656;29;20224;-71
2022/08/15 02:13:44;;;;;;;12.48;11.35;;;;;;;;;;4855567;29;20053;-71
2022/08/15 02:16:13;;;;;;;11.90;10.90;;;;;;;;;;4886621;29;20048;-71
2022/08/15 02:18:38;;;;;;;12.50;11.38;;;;;;;;;;4909186;29;20044;-71
2022/08/15 02:21:04;;;;;;;11.85;10.98;;;;;;;;;;4925192;29;20059;-71
2022/08/15 02:23:31;;;;;;;12.10;11.00;;;;;;;;;;4925158;29;20036;-71
2022/08/15 02:25:56;;;;;;;11.90;11.00;;;;;;;;;;4908285;29;20040;-71
2022/08/15 02:28:23;;;;;;;12.13;10.93;;;;;;;;;;4911471;29;20046;-71
2022/08/15 02:30:50;;;;;;;12.55;11.30;;;;;;;;;;4928867;29;20526;-70
2022/08/15 02:33:16;;;;;;;11.82;10.82;;;;;;;;;;4928789;29;20076;-71
2022/08/15 02:35:43;;;;;;;12.50;11.35;;;;;;;;;;4927453;29;20032;-71
2022/08/15 02:38:09;;;;;;;12.02;11.00;;;;;;;;;;4912792;29;20024;-71
2022/08/15 02:40:35;;;;;;;12.25;11.15;;;;;;;;;;4927318;29;20039;-71
2022/08/15 02:43:09;;;;;;;11.73;10.82;;;;;;;;;;4912861;29;20032;-71
2022/08/15 02:45:38;;;;;;;11.85;10.98;;;;;;;;;;4911357;29;20083;-70
2022/08/15 02:48:08;;;;;;;11.60;10.70;;;;;;;;;;4928837;29;20520;-71
2022/08/15 02:50:35;;;;;;;11.75;10.85;;;;;;;;;;4905728;29;20032;-71
2022/08/15 02:53:14;;;;;;;12.43;11.35;;;;;;;;;;4927900;29;20504;-71
2022/08/15 02:55:44;;;;;;;12.32;11.27;;;;;;;;;;4912416;29;20080;-71
2022/08/15 02:58:11;;;;;;;12.00;11.20;;;;;;;;;;4928311;29;20036;-71
2022/08/15 03:00:39;;;;;;;12.55;11.38;;;;;;;;;;4926575;29;20031;-70
2022/08/15 03:03:10;;;;;;;12.50;11.30;;;;;;;;;;4927415;29;20040;-70
2022/08/15 03:05:40;;;;;;;12.07;11.10;;;;;;;;;;4927559;29;20040;-72
2022/08/15 03:08:06;;;;;;;11.77;10.80;;;;;;;;;;4928384;29;20038;-72
2022/08/15 03:10:34;;;;;;;11.85;10.68;;;;;;;;;;4909949;29;20447;-72
2022/08/15 03:13:05;;;;;;;11.80;10.98;;;;;;;;;;4928127;29;20040;-72
2022/08/15 03:15:52;;;;;;;13.18;10.75;;;;;;;;;;4926022;29;20042;-72
2022/08/15 03:18:24;;;;;;;12.07;10.82;;;;;;;;;;4927303;29;20115;-72
2022/08/15 03:20:51;;;;;;;11.90;10.90;;;;;;;;;;4899707;29;20027;-72
2022/08/15 03:23:24;;;;;;;11.00;10.13;;;;;;;;;;4911888;29;20043;-72
2022/08/15 03:25:52;;;;;;;11.38;10.45;;;;;;;;;;4927824;29;20044;-72
2022/08/15 03:28:24;;;;;;;11.27;10.38;;;;;;;;;;4910969;29;20036;-72
2022/08/15 03:30:51;;;;;;;11.63;10.57;;;;;;;;;;4926924;29;20051;-72
2022/08/15 03:33:17;;;;;;;12.15;11.00;;;;;;;;;;4926965;29;20492;-73
2022/08/15 03:35:49;;;;;;;11.23;10.43;;;;;;;;;;4910525;29;20486;-72
2022/08/15 03:38:17;;;;;;;11.90;10.95;;;;;;;;;;4911738;29;20036;-72
2022/08/15 03:40:47;;;;;;;11.15;10.20;;;;;;;;;;4912141;29;20119;-72
2022/08/15 03:43:20;;;;;;;11.00;10.02;;;;;;;;;;4914520;29;20536;-72
2022/08/15 03:45:50;;;;;;;11.05;10.20;;;;;;;;;;4911935;29;20028;-71
2022/08/15 03:48:23;;;;;;;11.50;10.48;;;;;;;;;;4927668;29;20043;-71
2022/08/15 03:50:53;;;;;;;11.30;10.40;;;;;;;;;;4910287;29;20039;-72
2022/08/15 03:53:20;;;;;;;10.98;9.93;;;;;;;;;;4912042;29;20044;-71
2022/08/15 03:55:46;;;;;;;11.23;10.20;;;;;;;;;;4911181;29;20032;-72
2022/08/15 03:58:12;;;;;;;10.65;9.80;;;;;;;;;;4924945;29;20087;-73
2022/08/15 04:00:45;;;;;;;10.80;10.00;;;;;;;;;;4912307;29;20043;-72
2022/08/15 04:03:15;;;;;;;11.18;10.30;;;;;;;;;;4926400;29;20531;-73
2022/08/15 04:05:59;;;;;;;11.48;10.25;;;;;;;;;;4910742;29;20139;-73
2022/08/15 04:08:28;;;;;;;11.25;10.32;;;;;;;;;;4909113;29;20031;-72
2022/08/15 04:10:53;;;;;;;11.05;10.30;;;;;;;;;;4926674;29;20452;-73
2022/08/15 04:13:24;;;;;;;11.50;10.63;;;;;;;;;;4926365;29;20044;-73
2022/08/15 04:15:52;;;;;;;11.20;10.25;;;;;;;;;;4923506;29;20055;-72
2022/08/15 04:18:17;;;;;;;10.45;9.68;;;;;;;;;;4910103;29;20032;-72
2022/08/15 04:20:43;;;;;;;11.43;10.40;;;;;;;;;;4911447;29;20090;-73
2022/08/15 04:23:10;;;;;;;11.02;10.20;;;;;;;;;;4911903;29;20440;-73
2022/08/15 04:25:40;;;;;;;11.38;10.45;;;;;;;;;;4925957;29;20032;-73
2022/08/15 04:28:06;;;;;;;11.13;10.32;;;;;;;;;;4909017;29;20036;-73
2022/08/15 04:30:36;;;;;;;11.43;10.55;;;;;;;;;;4910825;29;20115;-73
2022/08/15 04:33:11;;;;;;;12.00;10.77;;;;;;;;;;4923216;29;20058;-72
2022/08/15 04:35:40;;;;;;;11.40;10.52;;;;;;;;;;4923698;29;20079;-72
2022/08/15 04:38:06;;;;;;;11.77;10.77;;;;;;;;;;4926202;29;20055;-72
2022/08/15 04:40:33;;;;;;;10.98;10.18;;;;;;;;;;4926189;29;20614;-73
2022/08/15 04:43:00;;;;;;;10.98;10.18;;;;;;;;;;4925943;29;20606;-73
2022/08/15 04:45:30;;;;;;;11.80;10.77;;;;;;;;;;4922584;29;20036;-72
2022/08/15 04:47:58;;;;;;;11.32;10.43;;;;;;;;;;4911481;29;20701;-72
2022/08/15 04:50:23;;;;;;;11.43;10.50;;;;;;;;;;4907739;29;20040;-72
2022/08/15 04:52:55;;;;;;;11.38;10.35;;;;;;;;;;4909863;29;20044;-71
2022/08/15 04:55:26;;;;;;;11.73;10.60;;;;;;;;;;4925299;29;20522;-72
2022/08/15 04:57:52;;;;;;;11.48;10.52;;;;;;;;;;4909910;29;20431;-72
2022/08/15 05:00:22;;;;;;;11.10;10.20;;;;;;;;;;4909648;29;20074;-72
2022/08/15 05:03:17;;;;;;;10.95;10.25;;;;;;;;;;4908771;29;20048;-72
2022/08/15 05:05:52;;;;;;;11.50;10.60;;;;;;;;;;4908825;29;20735;-72
2022/08/15 05:08:20;;;;;;;11.38;10.50;;;;;;;;;;4910607;29;20493;-72
2022/08/15 05:10:54;;;;;;;11.13;10.35;;;;;;;;;;4924460;29;20055;-72
2022/08/15 05:13:24;;;;;;;11.25;10.43;;;;;;;;;;4924167;29;20059;-72
2022/08/15 05:15:50;;;;;;;11.02;10.27;;;;;;;;;;4909870;29;20060;-72
2022/08/15 05:18:16;;;;;;;10.80;10.02;;;;;;;;;;4926133;29;20496;-72
2022/08/15 05:20:42;;;;;;;11.18;10.38;;;;;;;;;;4911353;29;20036;-71
2022/08/15 05:23:11;;;;;;;10.73;9.98;;;;;;;;;;4908999;29;20108;-72
2022/08/15 05:25:50;;;;;;;11.68;10.63;;;;;;;;;;4909356;29;20459;-72
2022/08/15 05:28:18;;;;;;;10.88;10.13;;;;;;;;;;4910202;29;20091;-72
2022/08/15 05:30:44;;;;;;;11.30;10.40;;;;;;;;;;4925225;29;20036;-72
2022/08/15 05:33:13;;;;;;;11.63;10.52;;;;;;;;;;4909089;29;20031;-72
2022/08/15 05:35:41;;;;;;;10.98;9.98;;;;;;;;;;4909490;29;20103;-72
2022/08/15 05:38:13;;;;;;;11.18;10.25;;;;;;;;;;4925272;29;20066;-72
2022/08/15 05:40:49;;;;;;;10.63;9.77;;;;;;;;;;4925558;29;20042;-71
2022/08/15 05:43:21;;;;;;;11.27;10.40;;;;;;;;;;4905681;29;20028;-72
2022/08/15 05:46:10;;;;;;;10.63;10.00;;;;;;;;;;4908983;29;20040;-72
2022/08/15 05:48:38;;;;;;;11.65;10.68;;;;;;;;;;4925368;29;20051;-71
2022/08/15 05:51:24;;;;;;;11.80;10.80;;;;;;;;;;4926908;29;20075;-71
2022/08/15 05:54:06;;;;;;;11.23;10.30;;;;;;;;;;4922964;29;20044;-71
2022/08/15 05:57:02;;;;;;;11.30;10.52;;;;;;;;;;4924486;29;20119;-71
2022/08/15 05:59:39;;;;;;;10.93;10.23;;;;;;;;;;4923047;29;20123;-71
2022/08/15 06:02:14;;;;;;;11.45;10.43;;;;;;;;;;4923445;29;20163;-71
2022/08/15 06:04:45;;;;;;;10.90;10.20;;;;;;;;;;4928872;29;20043;-71
2022/08/15 06:07:14;;;;;;;11.15;10.30;;;;;;;;;;4914577;29;20192;-71
2022/08/15 06:09:54;;;;;;;10.40;9.70;;;;;;;;;;4929233;29;20481;-71
2022/08/15 06:12:30;;;;;;;10.93;10.10;;;;;;;;;;4912196;29;20400;-71
2022/08/15 06:15:23;;;;;;;10.65;9.95;;;;;;;;;;4928238;29;20036;-71
2022/08/15 06:18:02;;;;;;;10.70;10.00;;;;;;;;;;4929122;29;20059;-71
2022/08/15 06:20:52;;;;;;;10.75;9.65;;;;;;;;;;4927057;29;20139;-71
2022/08/15 06:23:40;;;;;;;10.30;9.60;;;;;;;;;;4927734;29;20051;-71
2022/08/15 06:26:20;;;;;;;10.30;9.50;;;;;;;;;;4928652;29;20036;-71
2022/08/15 06:29:08;;;;;;;10.73;9.80;;;;;;;;;;4912614;29;20124;-71
2022/08/15 06:31:44;;;;;;;10.32;9.43;;;;;;;;;;4911145;29;20028;-71
2022/08/15 06:34:32;;;;;;;10.23;9.30;;;;;;;;;;4912633;29;20059;-71
2022/08/15 06:37:37;;;;;;;11.13;10.10;;;;;;;;;;4912936;29;20067;-71
2022/08/15 06:40:18;;;;;;;10.43;9.63;;;;;;;;;;4905299;29;20047;-71
2022/08/15 06:42:45;;;;;;;10.50;9.80;;;;;;;;;;4928542;29;20119;-71
2022/08/15 06:45:26;;;;;;;;;;;;;;;;;;4927184;29;20068;-72
2022/08/15 06:48:03;;;;;;;;;;;;;;;;;;4927513;29;19963;-71
2022/08/15 06:50:51;;;;;;;11.13;10.10;;;;;;;;;;4926428;29;19915;-72
2022/08/15 06:53:32;;;;;;;10.60;9.80;;;;;;;;;;4926846;29;20543;-71
2022/08/15 06:56:18;;;;;;;10.63;9.93;;;;;;;;;;4912463;29;20032;-71
2022/08/15 06:58:56;;;;;;;10.70;10.00;;;;;;;;;;4913086;29;20042;-71
2022/08/15 07:01:44;;;;;;;11.30;10.27;;;;;;;;;;4912586;29;20070;-71
2022/08/15 07:04:21;;;;;;;10.48;9.80;;;;;;;;;;4926786;29;20039;-71
2022/08/15 07:07:05;;;;;;;10.20;9.50;;;;;;;;;;4912631;29;20404;-71
2022/08/15 07:09:41;;;;;;;10.98;10.20;;;;;;;;;;4910830;29;20131;-71
2022/08/15 07:12:26;;;;;;;11.35;10.38;;;;;;;;;;4913317;29;20044;-71
2022/08/15 07:15:02;;;;;;;11.50;10.68;;;;;;;;;;4910787;29;20040;-71
2022/08/15 07:17:35;;;;;;;11.70;10.75;;;;;;;;;;4927945;29;20060;-71
2022/08/15 07:20:06;;;;;;;11.07;10.27;;;;;;;;;;4912292;29;20051;-70
2022/08/15 07:22:39;;;;;;;10.85;9.95;;;;;;;;;;4927183;29;20091;-71
2022/08/15 07:25:11;;;;;;;11.05;10.02;;;;;;;;;;4927005;29;20115;-70
2022/08/15 07:27:39;;;;;;;10.93;9.93;;;;;;;;;;4913129;29;20456;-71
2022/08/15 07:30:14;;;;;;;10.95;10.00;;;;;;;;;;4908740;29;20040;-70
2022/08/15 07:32:40;;;;;;;10.98;9.95;;;;;;;;;;4910773;29;20078;-70
2022/08/15 07:35:11;;;;;;;10.60;9.88;;;;;;;;;;4910857;29;20032;-70
2022/08/15 07:37:50;;;;;;;10.68;9.95;;;;;;;;;;4909657;29;20435;-71
2022/08/15 07:40:32;;;;;;;10.15;9.38;;;;;;;;;;4926072;29;20063;-71
2022/08/15 07:43:03;;;;;;;14.40;9.90;;;;;;;;;;4927056;29;20111;-70
2022/08/15 07:45:31;;;;;;;9.93;9.13;;;;;;;;;;4923266;29;20036;-71
2022/08/15 07:48:25;;;;;;;10.18;9.48;;;;;;;;;;4924161;29;20059;-71
2022/08/15 07:51:16;;;;;;;10.13;9.43;;;;;;;;;;4910872;29;20063;-71
2022/08/15 07:53:56;;;;;;;9.95;9.35;;;;;;;;;;4911232;29;20040;-71
2022/08/15 07:56:32;;;;;;;9.75;9.15;;;;;;;;;;4910116;29;20118;-71
2022/08/15 07:59:20;;;;;;;10.18;9.38;;;;;;;;;;4911437;29;20539;-71
2022/08/15 08:01:46;;;;;;;;;;;;;;;;;;4927161;29;20043;-71
2022/08/15 08:04:18;;;;;;;9.80;9.13;;;;;;;;;;4911611;29;19915;-71
2022/08/15 08:07:00;;;;;;;14.43;10.30;;;;;;;;;;4910788;29;20091;-71
2022/08/15 08:09:44;;;;;;;10.25;9.40;;;;;;;;;;4915346;29;20123;-71
2022/08/15 08:12:39;;;;;;;9.85;9.25;;;;;;;;;;4909093;29;20488;-72
2022/08/15 08:15:24;;;;;;;9.50;8.80;;;;;;;;;;4877683;29;20048;-72
2022/08/15 08:17:59;;;;;;;9.90;9.30;;;;;;;;;;4910146;29;20115;-71
2022/08/15 08:20:34;;;;;;;9.63;9.00;;;;;;;;;;4910516;29;20040;-71
2022/08/15 08:23:32;;;;;;;10.30;9.50;;;;;;;;;;4906315;29;20527;-71
2022/08/15 08:26:16;;;;;;;10.27;9.48;;;;;;;;;;4923094;29;20055;-71
2022/08/15 08:28:50;;;;;;;8.77;8.27;;;;;;;;;;4926577;29;20067;-71
2022/08/15 08:31:34;;;;;;;9.52;8.93;;;;;;;;;;4925146;29;20039;-71
2022/08/15 08:34:39;;;;;;;10.00;9.30;;;;;;;;;;4911943;29;20044;-71
2022/08/15 08:37:23;;;;;;;10.10;9.50;;;;;;;;;;4909349;29;20099;-71
2022/08/15 08:43:27;;;;;;;9.73;8.90;;;;;;;;;;4911138;29;20107;-72
2022/08/15 08:46:11;;;;;;;9.43;8.82;;;;;;;;;;4910928;29;20064;-72
2022/08/15 08:48:48;;;;;;;9.27;8.35;;;;;;;;;;4909860;29;20032;-71
2022/08/15 08:51:44;;;;;;;9.10;8.40;;;;;;;;;;4911279;29;20090;-71
2022/08/15 08:54:09;;;;;;;9.25;8.73;;;;;;;;;;4911476;29;20035;-72
2022/08/15 08:56:48;;;;;;;9.52;8.93;;;;;;;;;;4909367;29;20044;-71
2022/08/15 08:59:37;;;;;;;9.02;8.38;;;;;;;;;;4909879;29;20709;-72
2022/08/15 09:02:27;;;;;;;8.98;8.45;;;;;;;;;;4909696;29;20040;-71
2022/08/15 09:04:59;;;;;;;8.90;8.30;;;;;;;;;;4910919;29;20040;-72
2022/08/15 09:07:30;;;;;;;8.70;8.20;;;;;;;;;;4899535;29;20167;-72
2022/08/15 09:10:00;;;;;;;8.98;8.38;;;;;;;;;;4913313;29;20087;-72
2022/08/15 09:15:27;;;;;;;9.53;8.73;;;;;;;;;;4910977;29;20598;-72
2022/08/15 09:18:06;;;;;;;9.00;8.40;;;;;;;;;;4914340;29;20617;-72
2022/08/15 09:20:39;;;;;;;9.30;8.80;;;;;;;;;;4914289;29;20090;-72
2022/08/15 09:23:11;;;;;;;9.50;8.57;;;;;;;;;;4911557;29;20032;-73
2022/08/15 09:25:44;;;;;;;8.85;8.35;;;;;;;;;;4911187;29;20564;-70
2022/08/15 09:28:36;;;;;;;9.18;8.45;;;;;;;;;;4927279;29;20107;-72
2022/08/15 09:31:12;;;;;;;9.40;8.90;;;;;;;;;;4912906;29;20168;-71
2022/08/15 09:34:06;;;;;;;9.90;9.25;;;;;;;;;;4912028;29;20135;-71
2022/08/15 09:37:09;;;;;;;9.60;8.93;;;;;;;;;;4912761;29;20039;-72
2022/08/15 09:39:53;;;;;;;9.88;9.15;;;;;;;;;;4912629;29;20071;-72
2022/08/15 09:43:06;;;;;;;10.15;9.45;;;;;;;;;;4911632;29;20064;-72
2022/08/15 09:45:43;;;;;;;10.05;9.35;;;;;;;;;;4891840;29;20079;-72
2022/08/15 09:48:45;;;;;;;9.27;8.68;;;;;;;;;;4911145;29;20032;-72
2022/08/15 09:51:47;;;;;;;9.20;8.50;;;;;;;;;;4903672;29;20530;-72
2022/08/15 09:54:22;;;;;;;9.32;8.80;;;;;;;;;;4913478;29;20040;-71
2022/08/15 09:56:49;;;;;;;8.77;8.18;;;;;;;;;;4913076;29;20468;-72
2022/08/15 09:59:19;;;;;;;9.25;8.73;;;;;;;;;;4912604;29;20036;-72
2022/08/15 10:01:51;;;;;;;9.43;8.82;;;;;;;;;;4913809;29;20599;-72
2022/08/15 10:04:20;;;;;;;10.43;9.50;;;;;;;;;;4912901;29;20038;-72
2022/08/15 10:07:04;;;;;;;9.52;8.90;;;;;;;;;;4911363;29;20039;-72
2022/08/15 10:09:33;;;;;;;9.52;8.93;;;;;;;;;;4911989;29;20039;-73
2022/08/15 10:12:07;;;;;;;10.05;9.13;;;;;;;;;;4927313;29;20048;-73
2022/08/15 10:14:42;;;;;;;9.63;9.02;;;;;;;;;;4911226;29;20099;-72
2022/08/15 10:17:33;;;;;;;9.88;9.27;;;;;;;;;;4912798;29;20111;-72
2022/08/15 10:20:14;;;;;;;10.63;10.00;;;;;;;;;;4913664;29;20115;-71
2022/08/15 10:22:52;;;;;;;10.13;9.15;;;;;;;;;;4912639;29;20033;-72
2022/08/15 10:25:30;;;;;;;9.57;8.80;;;;;;;;;;4914178;29;20042;-72
2022/08/15 10:28:11;;;;;;;8.80;8.30;;;;;;;;;;4914655;29;20032;-72
2022/08/15 10:30:44;;;;;;;10.90;10.20;;;;;;;;;;4913385;29;20040;-71
2022/08/15 10:33:35;;;;;;;10.02;9.43;;;;;;;;;;4915988;29;20040;-71
2022/08/15 10:36:03;;;;;;;9.23;8.43;;;;;;;;;;4914191;29;20043;-72
2022/08/15 10:38:30;;;;;;;10.73;10.00;;;;;;;;;;4912053;29;20032;-73
2022/08/15 10:41:31;;;;;;;10.07;9.38;;;;;;;;;;4914429;29;20032;-72
2022/08/15 10:44:14;;;;;;;9.65;9.07;;;;;;;;;;4855425;29;20082;-72
2022/08/15 10:46:52;;;;;;;9.98;9.20;;;;;;;;;;4852544;29;20595;-72
2022/08/15 10:49:32;;;;;;;9.82;9.13;;;;;;;;;;4857436;29;20049;-73
2022/08/15 10:52:21;;;;;;;9.93;9.23;;;;;;;;;;4844157;29;20096;-71
2022/08/15 10:54:56;;;;;;;;;;;;;;;;;;4856750;29;20072;-71
2022/08/15 10:57:26;;;;;;;10.10;9.18;;;;;;;;;;4856892;29;19924;-72
2022/08/15 10:59:54;;;;;;;9.32;8.73;;;;;;;;;;4856004;29;20038;-72
2022/08/15 11:02:45;;;;;;;9.02;8.23;;;;;;;;;;4856506;29;20056;-72
2022/08/15 11:05:14;;;;;;;9.32;8.73;;;;;;;;;;4852134;29;20090;-73
2022/08/15 11:07:47;;;;;;;9.65;8.68;;;;;;;;;;4840692;29;20052;-73
2022/08/15 11:10:15;;;;;;;9.70;9.10;;;;;;;;;;4854951;29;20053;-73
2022/08/15 11:12:45;;;;;;;10.10;9.07;;;;;;;;;;4855960;29;20199;-72
2022/08/15 11:15:21;;;;;;;9.50;8.80;;;;;;;;;;4856750;29;20508;-72
2022/08/15 11:17:53;;;;;;;9.70;8.90;;;;;;;;;;4856058;29;20033;-72
2022/08/15 11:20:24;;;;;;;10.60;9.90;;;;;;;;;;4870027;29;20052;-72
2022/08/15 11:22:57;;;;;;;10.35;9.65;;;;;;;;;;4914138;29;20119;-72
2022/08/15 11:25:28;;;;;;;9.75;8.98;;;;;;;;;;4913154;29;20091;-73
2022/08/15 11:28:10;;;;;;;10.15;9.27;;;;;;;;;;4914696;29;20047;-73
2022/08/15 11:30:38;;;;;;;9.60;8.88;;;;;;;;;;4912814;29;20591;-73
2022/08/15 11:33:21;;;;;;;;;;;;;;;;;;4914183;29;20040;-72
2022/08/15 11:35:48;;;;;;;10.38;9.55;;;;;;;;;;4914031;29;19923;-72
2022/08/15 11:38:18;;;;;;;9.80;9.10;;;;;;;;;;4914909;29;20131;-73
2022/08/15 11:40:52;;;;;;;9.82;9.23;;;;;;;;;;4910015;29;20085;-72
2022/08/15 11:43:19;;;;;;;9.52;8.90;;;;;;;;;;4912964;29;20028;-72
2022/08/15 11:45:48;;;;;;;9.60;8.90;;;;;;;;;;4914316;29;20768;-73
2022/08/15 11:48:31;;;;;;;10.48;9.68;;;;;;;;;;4914368;29;20686;-73
2022/08/15 11:51:01;;;;;;;9.48;8.88;;;;;;;;;;4912729;29;20099;-73
2022/08/15 11:53:31;;;;;;;10.98;10.32;;;;;;;;;;4914116;29;20113;-72
2022/08/15 11:55:57;;;;;;;10.07;9.30;;;;;;;;;;4914164;29;20039;-73
2022/08/15 11:58:34;;;;;;;10.30;9.60;;;;;;;;;;4912724;29;20060;-73
2022/08/15 12:01:26;;;;;;;9.95;9.25;;;;;;;;;;4912333;29;20039;-73
2022/08/15 12:04:04;;;;;;;9.80;9.20;;;;;;;;;;4912531;29;20035;-72
2022/08/15 12:06:37;;;;;;;10.23;9.52;;;;;;;;;;4910844;29;20040;-72
2022/08/15 12:09:23;;;;;;;10.73;10.02;;;;;;;;;;4913770;29;20705;-71
2022/08/15 12:11:50;;;;;;;10.95;10.25;;;;;;;;;;4914004;29;20044;-73
2022/08/15 12:14:22;;;;;;;10.05;9.43;;;;;;;;;;4912836;29;20071;-72
2022/08/15 12:16:51;;;;;;;10.32;9.30;;;;;;;;;;4914019;29;20036;-72
2022/08/15 12:19:35;;;;;;;10.55;9.85;;;;;;;;;;4913721;29;20091;-72
2022/08/15 12:22:13;;;;;;;11.18;10.48;;;;;;;;;;4913440;29;20036;-72
2022/08/15 12:24:43;;;;;;;10.25;9.55;;;;;;;;;;4912632;29;20111;-72
2022/08/15 12:27:10;;;;;;;9.85;9.25;;;;;;;;;;4929811;29;20039;-73
2022/08/15 12:29:37;;;;;;;10.57;9.77;;;;;;;;;;4914722;29;20032;-72
2022/08/15 12:32:05;;;;;;;11.02;9.75;;;;;;;;;;4914444;29;20103;-73
2022/08/15 12:34:42;;;;;;;9.88;9.18;;;;;;;;;;4912475;29;20040;-72
2022/08/15 12:37:13;;;;;;;8.90;8.23;;;;;;;;;;4914121;29;20039;-71
2022/08/15 12:39:42;;;;;;;9.38;8.60;;;;;;;;;;4914033;29;20035;-73
2022/08/15 12:42:11;;;;;;;8.95;8.35;;;;;;;;;;4912039;29;20043;-73
2022/08/15 12:44:38;;;;;;;9.13;8.63;;;;;;;;;;4913516;29;20055;-72
2022/08/15 12:47:05;;;;;;;9.80;9.00;;;;;;;;;;4914540;29;20038;-72
2022/08/15 12:49:30;;;;;;;10.18;9.57;;;;;;;;;;4915006;29;20067;-72
2022/08/15 12:51:56;;;;;;;9.48;8.88;;;;;;;;;;4912927;29;20063;-72
2022/08/15 12:54:22;;;;;;;9.40;8.80;;;;;;;;;;4914051;29;20126;-73
2022/08/15 12:56:47;;;;;;;9.77;9.18;;;;;;;;;;4914258;29;20453;-73
2022/08/15 12:59:13;;;;;;;9.95;9.25;;;;;;;;;;4913758;29;20040;-73
2022/08/15 13:01:42;;;;;;;9.93;9.32;;;;;;;;;;4912222;29;20028;-72
2022/08/15 13:04:10;;;;;;;;;;;;;;;;;;4914850;29;20031;-72
2022/08/15 13:06:55;;;;;;;10.68;9.77;;;;;;;;;;4913930;29;19915;-73
2022/08/15 13:09:22;;;;;;;10.18;9.40;;;;;;;;;;4911930;29;20046;-73
2022/08/15 13:11:48;;;;;;;10.15;9.38;;;;;;;;;;4912552;29;20044;-72
2022/08/15 13:14:18;;;;;;;9.98;9.35;;;;;;;;;;4913179;29;20039;-72
2022/08/15 13:16:45;;;;;;;9.57;8.95;;;;;;;;;;4913117;29;20111;-73
2022/08/15 13:19:16;;;;;;;9.93;9.27;;;;;;;;;;4913427;29;20036;-72
2022/08/15 13:24:27;;;;;;;9.77;9.07;;;;;;;;;;4910669;29;20039;-73
2022/08/15 13:26:53;;;;;;;13.20;9.73;;;;;;;;;;4909083;29;20044;-72
2022/08/15 13:29:19;;;;;;;10.25;9.52;;;;;;;;;;4910813;29;20556;-73
2022/08/15 13:31:46;;;;;;;10.95;10.20;;;;;;;;;;4910322;29;20050;-73
2022/08/15 13:34:13;;;;;;;9.93;9.32;;;;;;;;;;4911128;29;20051;-72
2022/08/15 13:36:39;;;;;;;9.95;9.05;;;;;;;;;;4908774;29;20043;-73
2022/08/15 13:39:12;;;;;;;9.80;9.20;;;;;;;;;;4910275;29;20040;-72
2022/08/15 13:41:38;;;;;;;9.93;9.27;;;;;;;;;;4910085;29;20039;-73
2022/08/15 13:44:05;;;;;;;9.88;9.07;;;;;;;;;;4908108;29;20035;-73
2022/08/15 13:46:32;;;;;;;10.40;9.52;;;;;;;;;;4910128;29;20048;-73
2022/08/15 13:48:58;;;;;;;10.40;9.43;;;;;;;;;;4910594;29;20124;-73
2022/08/15 13:51:25;;;;;;;11.00;10.10;;;;;;;;;;4910271;29;20474;-73
2022/08/15 13:53:53;;;;;;;10.40;9.60;;;;;;;;;;4908681;29;20118;-73
2022/08/15 13:56:20;;;;;;;9.63;8.97;;;;;;;;;;4908763;29;20107;-73
2022/08/15 13:58:46;;;;;;;10.48;9.38;;;;;;;;;;4916091;29;20298;-72
2022/08/15 14:01:16;;;;;;;10.88;10.00;;;;;;;;;;4915267;29;20131;-73
2022/08/15 14:03:43;;;;;;;10.32;9.43;;;;;;;;;;4915499;29;20165;-72
2022/08/15 14:06:10;;;;;;;9.82;9.23;;;;;;;;;;4914386;29;20048;-73
2022/08/15 14:08:37;;;;;;;10.48;9.60;;;;;;;;;;4912185;29;20036;-73
2022/08/15 14:11:04;;;;;;;10.52;9.50;;;;;;;;;;4908915;29;20051;-72
2022/08/15 14:13:30;;;;;;;9.75;9.15;;;;;;;;;;4908689;29;20084;-73
2022/08/15 14:15:55;;;;;;;10.23;9.50;;;;;;;;;;4910337;29;20036;-72
2022/08/15 14:18:23;;;;;;;10.15;9.38;;;;;;;;;;4910196;29;20052;-72
2022/08/15 14:20:49;;;;;;;10.40;9.70;;;;;;;;;;4907890;29;20036;-74
2022/08/15 14:23:17;;;;;;;10.07;9.15;;;;;;;;;;4907655;29;20036;-74
2022/08/15 14:25:43;;;;;;;10.13;9.32;;;;;;;;;;4913297;29;20040;-74
2022/08/15 14:28:09;;;;;;;9.73;9.13;;;;;;;;;;4913730;29;20031;-73
2022/08/15 14:30:36;;;;;;;9.75;8.90;;;;;;;;;;4913379;29;20028;-73
2022/08/15 14:33:02;;;;;;;10.35;9.55;;;;;;;;;;4914982;29;20036;-73
2022/08/15 14:35:28;;;;;;;9.93;9.10;;;;;;;;;;4912407;29;20051;-73
2022/08/15 14:37:55;;;;;;;9.90;9.13;;;;;;;;;;4914961;29;20099;-73
2022/08/15 14:40:24;;;;;;;9.75;9.00;;;;;;;;;;4913301;29;20515;-73
2022/08/15 14:42:51;;;;;;;10.55;9.65;;;;;;;;;;4914588;29;20575;-72
2022/08/15 14:45:18;;;;;;;9.77;9.05;;;;;;;;;;4917870;29;20509;-73
2022/08/15 14:47:49;;;;;;;9.88;9.20;;;;;;;;;;4917374;29;20623;-73
2022/08/15 14:50:21;;;;;;;9.73;8.95;;;;;;;;;;4917135;29;20047;-72
2022/08/15 14:52:47;;;;;;;9.48;8.82;;;;;;;;;;4917517;29;20051;-73
2022/08/15 14:55:13;;;;;;;10.15;9.45;;;;;;;;;;4917471;29;20044;-72
2022/08/15 14:57:39;;;;;;;10.00;9.30;;;;;;;;;;4916807;29;20717;-72
2022/08/15 15:00:10;;;;;;;10.25;9.50;;;;;;;;;;4917733;29;20075;-72
2022/08/15 15:02:36;;;;;;;13.15;10.68;;;;;;;;;;4916745;29;20472;-71
2022/08/15 15:05:08;;;;;;;11.40;10.27;;;;;;;;;;4913080;29;20035;-72
2022/08/15 15:07:37;;;;;;;15.02;10.68;;;;;;;;;;4912780;29;20059;-73
2022/08/15 15:10:07;;;;;;;14.23;12.18;;;;;;;;;;4914282;29;20028;-74
2022/08/15 15:12:33;;;;;;;21.85;16.90;;;;;;;;;;4914467;29;20044;-74
2022/08/15 15:15:00;;;;;;;24.20;18.60;;;;;;;;;;4914226;29;20589;-74
2022/08/15 15:17:25;;;;;;;24.55;21.35;;;;;;;;;;4912389;29;20050;-74